Wetherby, United Kingdom
Current Conditions -  °F | °C
As of 9:50 PM on Wednesday 28 Jan 2015 (Local Time) from EGXU Reporting Station
Broken Clouds Broken Clouds  
Wind Chill: 25°   Ceiling: 14000
Heat Index: 36°   Visibility: 6mi
Dew Point: 30°   Wind: 21mph
Humidity: 81%   Direction: 250°WSW
Pressure: 29.23"   Gusts: NA
Location:  53.93°N, 1.39°W
Report Text: EGXU 282150Z AUTO 25018KT 9999 // FEW021/// BKN140/// 02/M01 Q0990
Loading
Personal Weather Stations






























Interactive Weather Map New forecast layout! Learn more

10-Day Weather Forecast

Advertisements
Track Severe Weather on mobile